sensor_id;sensor_type;location;lat;lon;timestamp;pressure;altitude;pressure_sealevel;temperature;humidity
62111;BME280;48102;47.526;19.072;2023-03-03T04:41:18;100563.31;;;2.54;100.00
62111;BME280;48102;47.526;19.072;2023-03-03T04:44:22;100563.31;;;2.54;100.00
62111;BME280;48102;47.526;19.072;2023-03-03T04:47:25;100566.59;;;1.97;100.00
62111;BME280;48102;47.526;19.072;2023-03-03T04:50:29;100568.38;;;1.93;100.00
62111;BME280;48102;47.526;19.072;2023-03-03T04:53:32;100564.91;;;1.94;100.00
62111;BME280;48102;47.526;19.072;2023-03-03T04:56:36;100563.19;;;1.93;100.00
62111;BME280;48102;47.526;19.072;2023-03-03T04:59:42;100567.50;;;1.96;100.00
62111;BME280;48102;47.526;19.072;2023-03-03T05:02:46;100575.22;;;2.00;100.00
62111;BME280;48102;47.526;19.072;2023-03-03T05:05:49;100568.28;;;2.04;100.00
62111;BME280;48102;47.526;19.072;2023-03-03T05:08:52;100565.63;;;2.07;100.00
62111;BME280;48102;47.526;19.072;2023-03-03T05:11:55;100567.41;;;2.04;100.00
62111;BME280;48102;47.526;19.072;2023-03-03T05:14:58;100576.13;;;1.99;100.00
62111;BME280;48102;47.526;19.072;2023-03-03T05:18:00;100566.59;;;2.00;100.00
62111;BME280;48102;47.526;19.072;2023-03-03T05:21:04;100571.66;;;2.09;100.00
62111;BME280;48102;47.526;19.072;2023-03-03T05:24:07;100568.09;;;2.18;100.00
62111;BME280;48102;47.526;19.072;2023-03-03T05:27:10;100562.00;;;2.22;100.00
62111;BME280;48102;47.526;19.072;2023-03-03T05:30:13;100566.31;;;2.23;100.00
62111;BME280;48102;47.526;19.072;2023-03-03T05:33:16;100570.69;;;2.18;100.00
62111;BME280;48102;47.526;19.072;2023-03-03T05:36:19;100574.03;;;2.31;100.00
62111;BME280;48102;47.526;19.072;2023-03-03T05:39:22;100573.78;;;2.49;100.00
62111;BME280;48102;47.526;19.072;2023-03-03T05:42:25;100572.03;;;2.51;100.00
62111;BME280;48102;47.526;19.072;2023-03-03T05:45:28;100571.22;;;2.47;100.00
62111;BME280;48102;47.526;19.072;2023-03-03T05:48:31;100577.19;;;2.56;100.00
62111;BME280;48102;47.526;19.072;2023-03-03T05:51:34;100577.94;;;2.62;100.00
62111;BME280;48102;47.526;19.072;2023-03-03T05:54:36;100581.31;;;2.67;100.00
62111;BME280;48102;47.526;19.072;2023-03-03T05:57:39;100585.66;;;2.70;100.00
62111;BME280;48102;47.526;19.072;2023-03-03T06:00:42;100585.59;;;2.71;100.00
62111;BME280;48102;47.526;19.072;2023-03-03T06:03:45;100587.22;;;2.80;100.00
62111;BME280;48102;47.526;19.072;2023-03-03T06:06:48;100589.78;;;2.83;100.00
62111;BME280;48102;47.526;19.072;2023-03-03T06:09:51;100593.97;;;2.95;100.00
62111;BME280;48102;47.526;19.072;2023-03-03T06:12:54;100588.72;;;2.98;100.00
62111;BME280;48102;47.526;19.072;2023-03-03T06:15:57;100587.78;;;3.04;100.00
62111;BME280;48102;47.526;19.072;2023-03-03T06:18:59;100581.56;;;3.12;100.00
62111;BME280;48102;47.526;19.072;2023-03-03T06:22:03;100581.97;;;3.40;100.00
62111;BME280;48102;47.526;19.072;2023-03-03T06:25:05;100574.16;;;3.42;100.00
62111;BME280;48102;47.526;19.072;2023-03-03T06:28:08;100588.03;;;3.42;100.00
62111;BME280;48102;47.526;19.072;2023-03-03T06:31:11;100586.28;;;3.43;100.00
62111;BME280;48102;47.526;19.072;2023-03-03T06:34:14;100586.19;;;3.47;100.00
62111;BME280;48102;47.526;19.072;2023-03-03T06:37:17;100585.09;;;3.61;100.00
62111;BME280;48102;47.526;19.072;2023-03-03T06:40:19;100585.84;;;3.69;100.00
62111;BME280;48102;47.526;19.072;2023-03-03T06:43:22;100591.69;;;3.82;100.00
62111;BME280;48102;47.526;19.072;2023-03-03T06:46:26;100594.16;;;3.88;100.00
62111;BME280;48102;47.526;19.072;2023-03-03T06:49:29;100598.25;;;4.01;100.00
62111;BME280;48102;47.526;19.072;2023-03-03T06:52:32;100612.06;;;4.08;100.00
62111;BME280;48102;47.526;19.072;2023-03-03T06:55:35;100612.56;;;4.26;100.00
62111;BME280;48102;47.526;19.072;2023-03-03T06:58:38;100612.22;;;4.45;100.00
62111;BME280;48102;47.526;19.072;2023-03-03T07:01:45;100616.19;;;4.61;100.00
62111;BME280;48102;47.526;19.072;2023-03-03T07:04:52;100612.28;;;4.82;100.00
62111;BME280;48102;47.526;19.072;2023-03-03T07:07:57;100617.91;;;5.02;100.00
62111;BME280;48102;47.526;19.072;2023-03-03T07:11:07;100617.66;;;5.13;100.00
62111;BME280;48102;47.526;19.072;2023-03-03T07:14:15;100622.78;;;5.18;100.00
62111;BME280;48102;47.526;19.072;2023-03-03T07:17:22;100628.50;;;5.34;100.00
62111;BME280;48102;47.526;19.072;2023-03-03T07:20:35;100627.84;;;5.25;100.00
62111;BME280;48102;47.526;19.072;2023-03-03T07:23:41;100631.66;;;5.48;100.00
62111;BME280;48102;47.526;19.072;2023-03-03T07:26:45;100630.34;;;5.30;100.00
62111;BME280;48102;47.526;19.072;2023-03-03T07:29:50;100632.19;;;5.25;100.00
62111;BME280;48102;47.526;19.072;2023-03-03T07:32:56;100637.81;;;5.45;100.00
62111;BME280;48102;47.526;19.072;2023-03-03T07:36:01;100642.94;;;5.50;100.00
62111;BME280;48102;47.526;19.072;2023-03-03T07:39:34;100637.41;;;5.62;100.00
62111;BME280;48102;47.526;19.072;2023-03-03T07:42:41;100643.38;;;5.67;100.00
62111;BME280;48102;47.526;19.072;2023-03-03T07:45:49;100642.53;;;5.67;100.00
62111;BME280;48102;47.526;19.072;2023-03-03T07:48:53;100635.00;;;5.89;100.00
62111;BME280;48102;47.526;19.072;2023-03-03T07:51:58;100634.59;;;6.06;100.00
62111;BME280;48102;47.526;19.072;2023-03-03T07:55:22;100638.66;;;6.16;100.00
62111;BME280;48102;47.526;19.072;2023-03-03T07:58:37;100640.50;;;6.12;100.00
62111;BME280;48102;47.526;19.072;2023-03-03T08:01:43;100637.63;;;6.21;100.00
62111;BME280;48102;47.526;19.072;2023-03-03T08:04:48;100633.84;;;6.33;100.00
62111;BME280;48102;47.526;19.072;2023-03-03T08:08:29;100636.63;;;6.27;100.00
62111;BME280;48102;47.526;19.072;2023-03-03T08:15:28;100627.63;;;6.37;100.00
62111;BME280;48102;47.526;19.072;2023-03-03T08:18:42;100625.38;;;6.54;100.00
62111;BME280;48102;47.526;19.072;2023-03-03T08:21:47;100623.31;;;6.66;100.00
62111;BME280;48102;47.526;19.072;2023-03-03T08:24:50;100625.09;;;6.93;100.00
62111;BME280;48102;47.526;19.072;2023-03-03T08:27:53;100625.94;;;7.23;100.00
62111;BME280;48102;47.526;19.072;2023-03-03T08:30:56;100627.94;;;7.43;100.00
62111;BME280;48102;47.526;19.072;2023-03-03T08:34:19;100622.06;;;7.62;100.00
62111;BME280;48102;47.526;19.072;2023-03-03T08:37:22;100626.34;;;7.91;100.00
62111;BME280;48102;47.526;19.072;2023-03-03T08:40:25;100627.41;;;8.10;100.00
62111;BME280;48102;47.526;19.072;2023-03-03T08:43:28;100629.81;;;8.41;100.00
62111;BME280;48102;47.526;19.072;2023-03-03T08:46:31;100625.53;;;8.64;100.00
62111;BME280;48102;47.526;19.072;2023-03-03T08:49:34;100627.06;;;8.69;99.67
62111;BME280;48102;47.526;19.072;2023-03-03T08:52:37;100629.06;;;8.86;97.84
62111;BME280;48102;47.526;19.072;2023-03-03T08:55:40;100624.75;;;9.07;96.17
62111;BME280;48102;47.526;19.072;2023-03-03T08:58:46;100618.28;;;9.16;97.21
62111;BME280;48102;47.526;19.072;2023-03-03T09:02:05;100615.38;;;9.00;99.45
62111;BME280;48102;47.526;19.072;2023-03-03T09:05:09;100627.75;;;9.42;99.79
62111;BME280;48102;47.526;19.072;2023-03-03T09:08:12;100624.16;;;9.65;96.59
62111;BME280;48102;47.526;19.072;2023-03-03T09:11:23;100623.50;;;9.80;95.82
62111;BME280;48102;47.526;19.072;2023-03-03T09:14:28;100620.69;;;9.64;98.32
62111;BME280;48102;47.526;19.072;2023-03-03T09:17:34;100618.25;;;9.60;98.13
62111;BME280;48102;47.526;19.072;2023-03-03T09:20:51;100623.13;;;9.69;98.09
62111;BME280;48102;47.526;19.072;2023-03-03T09:23:56;100620.81;;;9.61;97.46
62111;BME280;48102;47.526;19.072;2023-03-03T09:26:59;100612.63;;;9.47;99.52
62111;BME280;48102;47.526;19.072;2023-03-03T09:33:46;100613.56;;;9.46;100.00
62111;BME280;48102;47.526;19.072;2023-03-03T09:36:52;100614.94;;;9.54;100.00
62111;BME280;48102;47.526;19.072;2023-03-03T09:39:56;100608.44;;;9.63;100.00
62111;BME280;48102;47.526;19.072;2023-03-03T09:43:11;100608.66;;;9.79;99.27
62111;BME280;48102;47.526;19.072;2023-03-03T09:46:31;100614.00;;;9.98;96.90
62111;BME280;48102;47.526;19.072;2023-03-03T10:00:16;100601.28;;;10.86;87.56
62111;BME280;48102;47.526;19.072;2023-03-03T10:10:44;100603.19;;;11.01;83.76
62111;BME280;48102;47.526;19.072;2023-03-03T10:20:28;100585.75;;;11.52;81.01
62111;BME280;48102;47.526;19.072;2023-03-03T10:31:00;100588.09;;;11.41;81.89
62111;BME280;48102;47.526;19.072;2023-03-03T10:37:30;100572.69;;;11.32;80.20
62111;BME280;48102;47.526;19.072;2023-03-03T10:40:48;100575.19;;;11.52;77.34
62111;BME280;48102;47.526;19.072;2023-03-03T11:07:56;100547.38;;;12.64;67.39
62111;BME280;48102;47.526;19.072;2023-03-03T11:31:03;100510.69;;;15.19;55.30
62111;BME280;48102;47.526;19.072;2023-03-03T11:44:43;100502.50;;;15.10;52.54
62111;BME280;48102;47.526;19.072;2023-03-03T11:48:00;100504.06;;;15.39;53.26
62111;BME280;48102;47.526;19.072;2023-03-03T11:51:14;100499.06;;;14.95;54.28
62111;BME280;48102;47.526;19.072;2023-03-03T11:54:46;100489.19;;;14.70;55.27
62111;BME280;48102;47.526;19.072;2023-03-03T12:01:24;100484.53;;;14.03;56.82
62111;BME280;48102;47.526;19.072;2023-03-03T12:04:43;100492.84;;;13.69;58.92
62111;BME280;48102;47.526;19.072;2023-03-03T12:12:24;100479.75;;;13.51;61.72
62111;BME280;48102;47.526;19.072;2023-03-03T12:29:02;100455.97;;;14.91;56.66
62111;BME280;48102;47.526;19.072;2023-03-03T12:36:01;100471.13;;;14.48;50.86
62111;BME280;48102;47.526;19.072;2023-03-03T12:46:29;100466.00;;;14.03;55.51
62111;BME280;48102;47.526;19.072;2023-03-03T12:49:43;100474.44;;;14.37;55.50
62111;BME280;48102;47.526;19.072;2023-03-03T12:53:24;100480.72;;;14.36;56.14
62111;BME280;48102;47.526;19.072;2023-03-03T13:13:58;100460.44;;;15.56;48.14
62111;BME280;48102;47.526;19.072;2023-03-03T13:17:18;100458.59;;;16.33;46.33
62111;BME280;48102;47.526;19.072;2023-03-03T13:23:59;100446.63;;;18.15;42.43
62111;BME280;48102;47.526;19.072;2023-03-03T13:27:19;100443.38;;;18.77;40.11
62111;BME280;48102;47.526;19.072;2023-03-03T13:30:26;100442.59;;;18.97;39.66
62111;BME280;48102;47.526;19.072;2023-03-03T13:33:35;100437.66;;;18.16;39.86
62111;BME280;48102;47.526;19.072;2023-03-03T13:36:49;100435.38;;;17.31;41.58
62111;BME280;48102;47.526;19.072;2023-03-03T13:43:20;100433.63;;;17.08;41.75
62111;BME280;48102;47.526;19.072;2023-03-03T13:46:42;100419.25;;;17.21;41.73
62111;BME280;48102;47.526;19.072;2023-03-03T13:53:28;100417.72;;;17.52;38.63
62111;BME280;48102;47.526;19.072;2023-03-03T14:06:03;100411.56;;;21.56;32.93
62111;BME280;48102;47.526;19.072;2023-03-03T14:12:46;100412.06;;;20.64;33.37
62111;BME280;48102;47.526;19.072;2023-03-03T14:16:10;100413.31;;;20.10;34.34
62111;BME280;48102;47.526;19.072;2023-03-03T14:19:20;100399.66;;;19.52;35.29
62111;BME280;48102;47.526;19.072;2023-03-03T14:25:53;100397.59;;;20.26;34.57
62111;BME280;48102;47.526;19.072;2023-03-03T14:32:30;100396.72;;;22.54;30.73
62111;BME280;48102;47.526;19.072;2023-03-03T14:38:52;100394.69;;;21.17;31.82
62111;BME280;48102;47.526;19.072;2023-03-03T14:41:55;100394.75;;;21.64;31.23
62111;BME280;48102;47.526;19.072;2023-03-03T14:45:19;100387.13;;;23.23;29.84
62111;BME280;48102;47.526;19.072;2023-03-03T14:48:49;100397.25;;;23.81;28.88
62111;BME280;48102;47.526;19.072;2023-03-03T14:51:52;100389.28;;;23.45;28.76
62111;BME280;48102;47.526;19.072;2023-03-03T14:55:56;100387.03;;;22.79;29.39
62111;BME280;48102;47.526;19.072;2023-03-03T14:58:53;100393.28;;;21.13;31.24
62111;BME280;48102;47.526;19.072;2023-03-03T15:02:04;100388.81;;;19.74;32.93
62111;BME280;48102;47.526;19.072;2023-03-03T15:08:32;100386.97;;;19.23;34.71
62111;BME280;48102;47.526;19.072;2023-03-03T15:11:35;100389.03;;;20.42;32.72
62111;BME280;48102;47.526;19.072;2023-03-03T15:14:42;100394.56;;;20.70;32.72
62111;BME280;48102;47.526;19.072;2023-03-03T15:21:03;100398.50;;;18.16;35.41
62111;BME280;48102;47.526;19.072;2023-03-03T15:24:27;100397.44;;;16.33;38.60
62111;BME280;48102;47.526;19.072;2023-03-03T15:27:49;100405.91;;;15.12;41.22
62111;BME280;48102;47.526;19.072;2023-03-03T15:34:39;100401.47;;;14.31;43.48
62111;BME280;48102;47.526;19.072;2023-03-03T15:37:57;100403.75;;;14.23;44.18
62111;BME280;48102;47.526;19.072;2023-03-03T15:47:35;100403.16;;;13.04;46.94
62111;BME280;48102;47.526;19.072;2023-03-03T15:51:05;100407.50;;;12.75;47.84
62111;BME280;48102;47.526;19.072;2023-03-03T15:54:33;100412.22;;;12.54;48.06
62111;BME280;48102;47.526;19.072;2023-03-03T15:58:11;100407.63;;;12.10;48.50
62111;BME280;48102;47.526;19.072;2023-03-03T16:05:21;100418.06;;;11.12;51.22
62111;BME280;48102;47.526;19.072;2023-03-03T16:16:11;100434.47;;;10.09;56.08
62111;BME280;48102;47.526;19.072;2023-03-03T16:19:36;100432.53;;;9.74;56.95
62111;BME280;48102;47.526;19.072;2023-03-03T16:26:09;100440.16;;;9.21;60.28
62111;BME280;48102;47.526;19.072;2023-03-03T16:29:24;100434.59;;;8.86;63.17
